Weather History for Camdenton, MO

Change the Weather History Date:

Wednesday, November 21, 2012

  Actual Average (KAIZ) Record (KAIZ)
Temperature  
Mean Temperature 52 °F -  
Max Temperature 68 °F 52 °F 73 °F (2010)
Min Temperature 35 °F 33 °F 10 °F (2000)
Degree Days  
Heating Degree Days 14    
Growing Degree Days 2 (Base 50)    
Moisture  
Dew Point 37 °F    
Average Humidity 63    
Maximum Humidity 100    
Minimum Humidity 26    
Precipitation  
Precipitation 0.00 in - - ()
Sea Level Pressure  
Sea Level Pressure 30.20 in    
Wind  
Wind Speed 4 mph ()    
Max Wind Speed 10 mph    
Max Gust Speed -    
Visibility 7.7 miles    
Events      
Averages and records for this station are not official NWS values.
T = Trace of Precipitation, MM = Missing Value Source: Averaged Metar Reports

Daily Weather History Graph

Daily Weather History Graph

Search for Another Location

Airport:

Trip Planner

Search our weather history database for the weather conditions in past years. The results will help you decide how hot, cold, wet, or windy it might be!

Date:

Astronomy

Nov. 21, 2012 Rise Set
Actual Time 6:58 AM CST 4:54 PM CST
Civil Twilight 6:29 AM CST 5:23 PM CST
Nautical Twilight 5:57 AM CST 5:55 PM CST
Astronomical Twilight 5:26 AM CST 6:26 PM CST
Moon 1:06 PM CST (11/21) 12:24 AM CST (11/21)
Length of Visible Light 10h 53m
Length of Day
9h 56m
First Quarter, 62% of the Moon is Illuminated
Nov 21
First Quarter
Nov 28
Full
Dec 6
Last Quarter
Dec 13
New
Dec 19
First Quarter

Hourly Weather History & Observations

Time (CST) Temp. Windchill Dew Point Humidity Pressure Visibility Wind Dir Wind Speed Gust Speed Precip Events Conditions
12:15 AM 42.8 °F - 41.0 °F 93% 30.24 in 5.0 mi Calm Calm - N/A   Clear
12:35 AM 44.6 °F 43.1 °F 41.0 °F 87% 30.24 in 10.0 mi WSW 3.5 mph - N/A   Clear
12:55 AM 46.4 °F 45.2 °F 42.8 °F 87% 30.23 in 7.0 mi SW 3.5 mph - N/A   Clear
1:15 AM 42.8 °F 39.3 °F 41.0 °F 93% 30.23 in 7.0 mi SW 5.8 mph - N/A   Clear
1:35 AM 44.6 °F 41.4 °F 41.0 °F 87% 30.24 in 7.0 mi WSW 5.8 mph - N/A   Clear
1:55 AM 42.8 °F 39.3 °F 41.0 °F 93% 30.24 in 7.0 mi WSW 5.8 mph - N/A   Clear
2:15 AM 42.8 °F 38.6 °F 41.0 °F 93% 30.24 in 7.0 mi SW 6.9 mph - N/A   Clear
2:35 AM 37.4 °F - 33.8 °F 87% 30.24 in 3.0 mi Calm Calm - N/A   Clear
2:55 AM 37.4 °F - 35.6 °F 93% 30.24 in 3.0 mi Calm Calm - N/A   Clear
3:15 AM 41.0 °F - 39.2 °F 93% 30.24 in 7.0 mi Calm Calm - N/A   Clear
3:35 AM 37.4 °F - 35.6 °F 93% 30.23 in 2.5 mi Calm Calm - N/A   Clear
3:55 AM 37.4 °F - 35.6 °F 93% 30.23 in 3.0 mi Calm Calm - N/A   Clear
4:15 AM 37.4 °F - 37.4 °F 100% 30.23 in 3.0 mi Calm Calm - N/A   Clear
4:35 AM 37.4 °F - 37.4 °F 100% 30.24 in 3.0 mi Calm Calm - N/A   Clear
4:55 AM 37.4 °F - 37.4 °F 100% 30.24 in 2.5 mi Calm Calm - N/A   Clear
5:15 AM 41.0 °F - 41.0 °F 100% 30.24 in 5.0 mi Calm Calm - N/A   Clear
5:35 AM 37.4 °F - 37.4 °F 100% 30.24 in 3.0 mi Calm Calm - N/A   Clear
5:55 AM 37.4 °F - 35.6 °F 93% 30.24 in 2.5 mi Calm Calm - N/A   Clear
6:15 AM 37.4 °F - 35.6 °F 93% 30.25 in 1.8 mi Calm Calm - N/A   Mist
6:35 AM 37.4 °F - 35.6 °F 93% 30.25 in 1.8 mi Calm Calm - N/A   Mist
6:55 AM 35.6 °F 31.7 °F 33.8 °F 93% 30.25 in 1.2 mi SE 4.6 mph - N/A   Mist
7:15 AM 35.6 °F 31.7 °F 35.6 °F 100% 30.25 in 1.8 mi SE 4.6 mph - N/A   Mist
7:35 AM 37.4 °F 32.8 °F 35.6 °F 93% 30.25 in 1.2 mi SSE 5.8 mph - N/A   Mist
7:55 AM 39.2 °F - 37.4 °F 93% 30.26 in 1.8 mi Calm Calm - N/A   Mist
8:15 AM 41.0 °F - 41.0 °F 100% 30.26 in 1.2 mi Calm Calm - N/A   Mist
8:35 AM 44.6 °F 42.2 °F 42.8 °F 93% 30.27 in 3.0 mi SE 4.6 mph - N/A   Clear
8:55 AM 46.4 °F 44.3 °F 44.6 °F 93% 30.27 in 5.0 mi SSE 4.6 mph - N/A   Clear
9:15 AM 50.0 °F - 44.6 °F 82% 30.27 in 7.0 mi SE 5.8 mph - N/A   Clear
9:35 AM 53.6 °F - 46.4 °F 77% 30.27 in 10.0 mi SE 4.6 mph - N/A   Clear
9:55 AM 55.4 °F - 46.4 °F 72% 30.27 in 10.0 mi SSE 6.9 mph - N/A   Clear
10:15 AM 57.2 °F - 44.6 °F 63% 30.27 in 10.0 mi SSE 6.9 mph - N/A   Clear
10:35 AM 59.0 °F - 44.6 °F 59% 30.27 in 10.0 mi SSE 5.8 mph - N/A   Clear
10:55 AM 60.8 °F - 44.6 °F 55% 30.26 in 10.0 mi South 5.8 mph - N/A   Clear
11:15 AM 62.6 °F - 42.8 °F 48% 30.26 in 10.0 mi South 6.9 mph - N/A   Clear
11:35 AM 62.6 °F - 37.4 °F 39% 30.25 in 10.0 mi South 6.9 mph - N/A   Clear
11:55 AM 64.4 °F - 37.4 °F 37% 30.24 in 10.0 mi South 6.9 mph - N/A   Clear
12:15 PM 64.4 °F - 37.4 °F 37% 30.22 in 10.0 mi South 8.1 mph - N/A   Clear
12:35 PM 66.2 °F - 35.6 °F 32% 30.21 in 10.0 mi SE 8.1 mph - N/A   Clear
12:55 PM 66.2 °F - 33.8 °F 30% 30.21 in 10.0 mi SSE 4.6 mph - N/A   Clear
1:15 PM 68.0 °F - 33.8 °F 28% 30.20 in 10.0 mi South 3.5 mph - N/A   Clear
1:35 PM 68.0 °F - 33.8 °F 28% 30.19 in 10.0 mi SSE 4.6 mph - N/A   Clear
1:55 PM 68.0 °F - 33.8 °F 28% 30.19 in 10.0 mi South 4.6 mph - N/A   Clear
2:15 PM 68.0 °F - 32.0 °F 26% 30.18 in 10.0 mi SE 6.9 mph - N/A   Clear
2:35 PM 68.0 °F - 32.0 °F 26% 30.17 in 10.0 mi SE 5.8 mph - N/A   Clear
2:55 PM 68.0 °F - 32.0 °F 26% 30.16 in 10.0 mi ESE 8.1 mph - N/A   Clear
3:15 PM 68.0 °F - 32.0 °F 26% 30.16 in 10.0 mi SE 8.1 mph - N/A   Clear
3:35 PM 66.2 °F - 32.0 °F 28% 30.16 in 10.0 mi SE 9.2 mph - N/A   Clear
3:55 PM 64.4 °F - 33.8 °F 32% 30.16 in 10.0 mi SE 8.1 mph - N/A   Clear
4:15 PM 64.4 °F - 33.8 °F 32% 30.15 in 10.0 mi SE 5.8 mph - N/A   Clear
4:35 PM 62.6 °F - 33.8 °F 34% 30.15 in 10.0 mi SE 5.8 mph - N/A   Clear
4:55 PM 62.6 °F - 33.8 °F 34% 30.15 in 10.0 mi SSE 5.8 mph - N/A   Clear
5:15 PM 60.8 °F - 33.8 °F 36% 30.15 in 10.0 mi SE 6.9 mph - N/A   Clear
5:35 PM 59.0 °F - 35.6 °F 42% 30.15 in 10.0 mi SE 8.1 mph - N/A   Clear
5:55 PM 59.0 °F - 33.8 °F 39% 30.15 in 10.0 mi SE 6.9 mph - N/A   Clear
6:15 PM 57.2 °F - 33.8 °F 41% 30.14 in 10.0 mi SE 6.9 mph - N/A   Clear
6:35 PM 55.4 °F - 33.8 °F 44% 30.14 in 10.0 mi SSE 8.1 mph - N/A   Clear
6:55 PM 55.4 °F - 32.0 °F 41% 30.13 in 10.0 mi SSE 10.4 mph - N/A   Clear
7:15 PM 57.2 °F - 33.8 °F 41% 30.13 in 10.0 mi SSE 10.4 mph - N/A   Clear
7:35 PM 55.4 °F - 33.8 °F 44% 30.13 in 10.0 mi SSE 8.1 mph - N/A   Clear
7:55 PM 55.4 °F - 33.8 °F 44% 30.13 in 10.0 mi South 9.2 mph - N/A   Clear
8:15 PM 53.6 °F - 33.8 °F 47% 30.13 in 10.0 mi South 9.2 mph - N/A   Clear
8:35 PM 53.6 °F - 33.8 °F 47% 30.13 in 10.0 mi SSE 9.2 mph - N/A   Clear
8:55 PM 51.8 °F - 33.8 °F 50% 30.13 in 10.0 mi SSE 9.2 mph - N/A   Clear
9:15 PM 51.8 °F - 33.8 °F 50% 30.13 in 10.0 mi SSE 10.4 mph - N/A   Clear
9:35 PM 51.8 °F - 33.8 °F 50% 30.12 in 10.0 mi SSE 10.4 mph - N/A   Clear
10:15 PM 50.0 °F - 33.8 °F 54% 30.11 in 10.0 mi SE 9.2 mph - N/A   Clear
10:35 PM 50.0 °F - 35.6 °F 58% 30.11 in 10.0 mi SSE 8.1 mph - N/A   Clear
10:55 PM 48.2 °F - 35.6 °F 62% 30.10 in 10.0 mi SE 6.9 mph - N/A   Clear
11:15 PM 50.0 °F - 37.4 °F 62% 30.10 in 10.0 mi SSE 10.4 mph - N/A   Clear
11:35 PM 51.8 °F - 37.4 °F 58% 30.10 in 10.0 mi SSE 10.4 mph - N/A   Clear
11:55 PM 51.8 °F - 37.4 °F 58% 30.10 in 10.0 mi SSE 9.2 mph - N/A   Clear